Time;durP1;ratioP1;P1;durP2;ratioP2;P2;SDS_P1;SDS_P2;PMS_P1;PMS_P2;Temp;Humidity;BMP_temperature;BMP_pressure;BME280_temperature;BME280_humidity;BME280_pressure;Samples;Min_cycle;Max_cycle;Signal;HPM_P1;HPM_P2
2022/06/10 00:00:29;;;;;;;17.40;11.43;;;;;;;17.54;87.21;98453.98;1775282;80;25637;-58
2022/06/10 00:02:56;;;;;;;18.48;11.65;;;;;;;17.50;87.48;98457.27;1775552;80;27430;-58
2022/06/10 00:05:26;;;;;;;18.62;11.85;;;;;;;17.44;87.67;98453.97;1775559;79;25632;-58
2022/06/10 00:07:53;;;;;;;16.93;11.43;;;;;;;17.42;87.78;98451.56;1775779;79;25679;-58
2022/06/10 00:10:23;;;;;;;17.20;11.35;;;;;;;17.45;87.99;98452.83;1775395;80;25719;-58
2022/06/10 00:12:50;;;;;;;20.48;11.43;;;;;;;17.47;87.83;98460.77;1775707;80;25686;-58
2022/06/10 00:15:18;;;;;;;15.63;10.98;;;;;;;17.43;87.75;98455.15;1775271;80;27464;-59
2022/06/10 00:17:45;;;;;;;17.57;11.70;;;;;;;17.45;87.82;98454.78;1775460;80;25656;-58
2022/06/10 00:20:15;;;;;;;18.30;10.98;;;;;;;17.46;87.70;98452.22;1775622;80;25458;-59
2022/06/10 00:22:41;;;;;;;18.95;11.90;;;;;;;17.48;87.78;98452.67;1775786;80;25691;-59
2022/06/10 00:25:09;;;;;;;15.80;11.20;;;;;;;17.40;87.81;98449.77;1775258;80;25382;-58
2022/06/10 00:27:35;;;;;;;19.17;11.88;;;;;;;17.43;87.82;98455.95;1775589;79;27430;-58
2022/06/10 00:30:03;;;;;;;17.42;11.10;;;;;;;17.42;87.55;98457.70;1775548;80;25482;-59
2022/06/10 00:32:29;;;;;;;17.52;10.50;;;;;;;17.40;87.86;98455.30;1775412;79;25580;-58
2022/06/10 00:34:55;;;;;;;18.12;11.38;;;;;;;17.44;87.86;98453.97;1775333;79;26597;-58
2022/06/10 00:37:21;;;;;;;15.35;10.23;;;;;;;17.46;87.38;98449.45;1775630;80;25400;-58
2022/06/10 00:39:47;;;;;;;16.52;11.55;;;;;;;17.33;87.11;98457.12;1775714;80;27374;-58
2022/06/10 00:42:13;;;;;;;16.97;11.53;;;;;;;17.22;87.39;98463.82;1775772;80;25455;-58
2022/06/10 00:44:48;;;;;;;17.23;11.55;;;;;;;17.20;87.74;98460.03;1774172;80;25701;-58
2022/06/10 00:47:37;;;;;;;16.30;11.22;;;;;;;17.23;88.00;98458.49;1765328;80;25678;-58
2022/06/10 00:50:28;;;;;;;16.48;11.40;;;;;;;17.26;87.77;98461.34;1765500;80;25403;-58
2022/06/10 00:52:59;;;;;;;17.95;11.97;;;;;;;17.24;87.96;98468.42;1719079;82;28257;-58
2022/06/10 00:55:30;;;;;;;15.55;11.05;;;;;;;17.28;87.74;98473.45;1712681;83;25422;-58
2022/06/10 00:58:11;;;;;;;14.87;10.60;;;;;;;17.30;87.90;98472.51;1712663;83;25663;-58
2022/06/10 01:00:38;;;;;;;16.20;11.12;;;;;;;17.33;87.58;98477.32;1713047;83;26589;-58
2022/06/10 01:03:06;;;;;;;16.07;11.20;;;;;;;17.30;87.50;98487.74;1712774;82;25246;-58
2022/06/10 01:05:33;;;;;;;17.62;11.70;;;;;;;17.24;87.28;98487.81;1712761;82;27378;-58
2022/06/10 01:08:11;;;;;;;17.77;11.88;;;;;;;17.19;87.31;98487.51;1712417;83;25406;-58
2022/06/10 01:10:54;;;;;;;17.42;11.73;;;;;;;17.23;88.13;98490.34;1711792;83;25622;-58
2022/06/10 01:13:48;;;;;;;15.23;11.10;;;;;;;17.22;88.17;98492.33;1712619;83;26113;-58
2022/06/10 01:16:28;;;;;;;15.20;11.03;;;;;;;17.25;87.80;98499.09;1712318;83;25642;-58
2022/06/10 01:19:07;;;;;;;;;;;;;;;17.22;87.78;98500.63;1715350;83;27496;-58
2022/06/10 01:22:17;;;;;;;18.37;11.35;;;;;;;17.21;87.97;98490.70;1712672;83;25570;-58
2022/06/10 01:25:07;;;;;;;14.40;9.95;;;;;;;17.21;88.33;98495.45;1712231;83;25408;-58
2022/06/10 01:27:50;;;;;;;15.13;10.93;;;;;;;17.18;87.70;98493.63;1713097;82;26559;-58
2022/06/10 01:30:54;;;;;;;13.68;10.38;;;;;;;17.20;88.24;98493.83;1712463;83;25404;-58
2022/06/10 01:33:47;;;;;;;14.10;10.48;;;;;;;17.18;87.49;98494.19;1712837;83;27452;-58
2022/06/10 01:36:34;;;;;;;12.58;10.05;;;;;;;17.10;87.64;98497.38;1711295;83;26110;-58
2022/06/10 01:39:20;;;;;;;14.63;9.43;;;;;;;17.05;87.75;98501.23;1713651;82;25580;-58
2022/06/10 01:42:10;;;;;;;14.63;10.58;;;;;;;17.11;88.04;98500.97;1712388;83;25742;-58
2022/06/10 01:45:12;;;;;;;12.93;10.20;;;;;;;17.18;88.17;98507.47;1712246;83;25698;-58
2022/06/10 01:47:55;;;;;;;14.33;10.53;;;;;;;17.18;87.64;98514.95;1723924;82;27510;-58
2022/06/10 01:51:05;;;;;;;13.75;9.98;;;;;;;17.06;87.94;98512.52;1712414;83;25662;-58
2022/06/10 01:53:36;;;;;;;13.83;10.63;;;;;;;17.05;88.16;98513.70;1712629;83;25488;-58
2022/06/10 01:56:23;;;;;;;14.83;10.48;;;;;;;17.02;88.22;98514.98;1712789;82;25665;-58
2022/06/10 01:59:16;;;;;;;12.55;9.95;;;;;;;17.08;88.52;98520.50;1723847;82;25630;-58
2022/06/10 02:01:48;;;;;;;13.75;10.43;;;;;;;17.17;88.51;98530.79;1712951;83;27438;-58
2022/06/10 02:04:20;;;;;;;14.47;10.38;;;;;;;17.18;88.22;98526.84;1712538;83;25702;-58
2022/06/10 02:07:06;;;;;;;15.48;10.58;;;;;;;17.22;88.51;98528.32;1723145;83;25711;-58
2022/06/10 02:09:48;;;;;;;14.38;10.58;;;;;;;17.20;87.86;98533.41;1713146;83;25616;-58
2022/06/10 02:12:26;;;;;;;12.70;9.98;;;;;;;17.20;88.22;98538.13;1712836;82;25621;-58
2022/06/10 02:14:57;;;;;;;12.63;10.08;;;;;;;17.27;88.42;98543.25;1711913;83;27348;-58
2022/06/10 02:17:29;;;;;;;15.55;10.60;;;;;;;17.25;88.01;98549.75;1712897;82;25645;-58
2022/06/10 02:19:59;;;;;;;12.78;9.70;;;;;;;17.20;87.94;98548.64;1712893;82;25630;-58
2022/06/10 02:22:32;;;;;;;12.98;10.05;;;;;;;17.19;88.34;98551.20;1713076;82;25698;-58
2022/06/10 02:25:14;;;;;;;11.60;9.38;;;;;;;17.23;88.43;98544.33;1713075;82;25379;-58
2022/06/10 02:27:51;;;;;;;12.03;9.38;;;;;;;17.24;88.21;98548.13;1712973;83;28477;-57
2022/06/10 02:30:31;;;;;;;14.50;9.43;;;;;;;17.31;88.14;98544.73;1713070;82;25610;-58
2022/06/10 02:32:59;;;;;;;11.85;9.65;;;;;;;17.28;87.87;98546.83;1712818;83;25686;-58
2022/06/10 02:35:33;;;;;;;12.90;9.55;;;;;;;17.28;88.25;98546.83;1712708;83;26240;-58
2022/06/10 02:38:12;;;;;;;14.40;10.23;;;;;;;17.28;87.97;98545.45;1712580;83;25394;-58
2022/06/10 02:40:52;;;;;;;15.05;11.05;;;;;;;17.26;88.25;98554.69;1712578;83;25926;-58
2022/06/10 02:43:24;;;;;;;13.35;10.45;;;;;;;17.26;88.19;98557.45;1712916;82;25942;-57
2022/06/10 02:46:01;;;;;;;14.78;10.90;;;;;;;17.22;88.17;98555.20;1715043;82;25644;-58
2022/06/10 02:49:03;;;;;;;15.40;11.22;;;;;;;17.22;88.34;98562.13;1719824;83;26656;-58
2022/06/10 02:51:32;;;;;;;15.15;11.53;;;;;;;17.21;88.39;98569.62;1719895;83;25701;-58
2022/06/10 02:54:00;;;;;;;15.83;12.25;;;;;;;17.20;88.38;98576.90;1719542;83;27649;-57
2022/06/10 02:56:28;;;;;;;15.32;12.05;;;;;;;17.22;88.57;98571.81;1719913;83;25735;-58
2022/06/10 03:02:07;;;;;;;15.88;11.83;;;;;;;17.17;88.51;98579.24;1672712;85;25504;-57
2022/06/10 03:05:04;;;;;;;;;;;;;;;17.21;88.96;98584.06;1674180;85;25517;-58
2022/06/10 03:07:43;;;;;;;15.03;11.75;;;;;;;17.17;88.74;98585.35;1672611;85;27605;-58
2022/06/10 03:10:27;;;;;;;14.87;11.65;;;;;;;17.15;89.13;98582.95;1671951;85;25590;-58
2022/06/10 03:13:22;;;;;;;15.18;12.28;;;;;;;17.22;89.09;98581.50;1672241;85;26252;-58
2022/06/10 03:16:09;;;;;;;16.02;11.70;;;;;;;17.17;89.01;98584.78;1671807;85;26485;-57
2022/06/10 03:18:57;;;;;;;14.40;10.90;;;;;;;17.16;88.95;98594.23;1672422;85;25749;-58
2022/06/10 03:21:48;;;;;;;13.50;10.53;;;;;;;17.10;89.34;98599.03;1673177;85;27449;-58
2022/06/10 03:24:53;;;;;;;13.25;9.75;;;;;;;17.10;89.15;98597.66;1659537;85;25786;-57
2022/06/10 03:27:37;;;;;;;11.15;9.23;;;;;;;17.12;89.15;98600.27;1671415;85;25807;-57
2022/06/10 03:30:14;;;;;;;10.58;9.00;;;;;;;17.16;88.84;98610.84;1672958;85;25922;-58
2022/06/10 03:33:18;;;;;;;11.33;9.53;;;;;;;17.11;88.65;98611.70;1673751;85;25796;-58
2022/06/10 03:35:51;;;;;;;11.55;8.98;;;;;;;17.07;88.76;98621.30;1688547;83;27618;-58
2022/06/10 03:38:19;;;;;;;12.82;9.65;;;;;;;17.04;88.84;98622.02;1719122;83;25425;-58
2022/06/10 03:40:56;;;;;;;10.50;8.25;;;;;;;16.99;89.08;98621.70;1719944;83;25620;-58
2022/06/10 03:43:24;;;;;;;12.90;9.03;;;;;;;17.03;88.72;98623.16;1719342;83;26089;-58
2022/06/10 03:45:57;;;;;;;11.33;9.00;;;;;;;17.09;88.88;98630.06;1719821;83;25424;-58
2022/06/10 03:48:27;;;;;;;12.65;9.10;;;;;;;17.09;88.86;98630.06;1719436;83;27669;-58
2022/06/10 03:50:55;;;;;;;11.15;9.23;;;;;;;17.13;88.88;98632.33;1719807;83;25698;-58
2022/06/10 03:53:25;;;;;;;11.55;8.90;;;;;;;17.17;88.77;98633.23;1719857;83;25662;-58
2022/06/10 03:55:51;;;;;;;13.00;8.83;;;;;;;17.21;89.05;98635.29;1720062;83;25694;-58
2022/06/10 03:58:19;;;;;;;11.97;9.18;;;;;;;17.21;88.57;98638.84;1719781;83;25630;-58
2022/06/10 04:00:46;;;;;;;9.75;8.43;;;;;;;17.24;88.95;98635.95;1719709;83;27374;-58
2022/06/10 04:03:12;;;;;;;10.03;7.92;;;;;;;17.32;88.80;98645.24;1719393;83;25681;-58
2022/06/10 04:05:40;;;;;;;10.03;8.48;;;;;;;17.28;88.21;98655.66;1719731;83;25689;-58
2022/06/10 04:08:07;;;;;;;12.70;8.25;;;;;;;17.28;88.46;98654.27;1719517;83;26778;-58
2022/06/10 04:10:34;;;;;;;10.25;8.60;;;;;;;17.24;88.21;98653.36;1719949;83;25634;-58
2022/06/10 04:13:00;;;;;;;10.30;8.65;;;;;;;17.25;88.40;98654.98;1719740;83;27427;-58
2022/06/10 04:15:27;;;;;;;9.05;7.87;;;;;;;17.26;88.42;98658.53;1719336;83;25477;-58
2022/06/10 04:17:57;;;;;;;10.25;7.53;;;;;;;17.25;88.28;98670.21;1719702;83;25453;-58
2022/06/10 04:20:34;;;;;;;9.70;8.00;;;;;;;17.17;88.12;98667.03;1720190;83;26397;-59
2022/06/10 04:23:02;;;;;;;10.98;7.87;;;;;;;17.13;88.36;98670.30;1719054;83;25646;-58
2022/06/10 04:25:29;;;;;;;9.58;8.38;;;;;;;17.14;88.45;98667.18;1719833;83;28126;-58
2022/06/10 04:27:56;;;;;;;8.95;7.20;;;;;;;17.12;88.40;98670.88;1719307;83;25484;-58
2022/06/10 04:30:37;;;;;;;10.58;7.65;;;;;;;17.10;88.24;98673.19;1719456;83;25470;-58
2022/06/10 04:33:05;;;;;;;8.95;7.50;;;;;;;17.12;88.64;98670.88;1719748;83;25695;-58
2022/06/10 04:35:37;;;;;;;9.75;7.75;;;;;;;17.13;88.56;98671.69;1719832;83;25493;-58
2022/06/10 04:38:05;;;;;;;11.65;8.70;;;;;;;17.13;88.52;98673.86;1719716;83;27427;-58
2022/06/10 04:40:35;;;;;;;10.98;8.05;;;;;;;17.06;88.49;98680.01;1719675;83;25944;-58
2022/06/10 04:43:03;;;;;;;12.13;8.68;;;;;;;17.03;88.61;98683.48;1719680;83;25666;-58
2022/06/10 04:45:37;;;;;;;13.58;8.98;;;;;;;16.97;88.55;98689.64;1719649;83;25706;-58
2022/06/10 04:48:04;;;;;;;12.20;9.08;;;;;;;16.94;88.51;98687.01;1719494;81;25464;-59
2022/06/10 04:50:31;;;;;;;13.72;10.55;;;;;;;16.93;88.67;98689.56;1720003;83;27463;-58
2022/06/10 04:52:58;;;;;;;11.28;10.08;;;;;;;16.88;88.90;98693.97;1719639;83;25478;-58
2022/06/10 04:55:27;;;;;;;12.30;9.85;;;;;;;16.86;88.69;98691.55;1719787;83;25674;-58
2022/06/10 04:57:55;;;;;;;11.35;10.15;;;;;;;16.78;89.10;98696.09;1719333;83;26570;-58
2022/06/10 05:00:26;;;;;;;13.20;10.90;;;;;;;16.80;89.15;98701.28;1719571;83;25414;-58
2022/06/10 05:02:53;;;;;;;13.08;10.40;;;;;;;16.80;89.17;98710.96;1717930;83;27460;-58
2022/06/10 05:05:22;;;;;;;13.28;9.85;;;;;;;16.79;89.14;98706.59;1719451;83;25494;-58
2022/06/10 05:07:49;;;;;;;15.50;10.05;;;;;;;16.73;89.12;98715.74;1719759;83;25616;-58
2022/06/10 05:10:17;;;;;;;16.73;11.05;;;;;;;16.68;89.27;98718.19;1719556;83;25790;-58
2022/06/10 05:12:46;;;;;;;14.38;10.98;;;;;;;16.71;89.28;98723.58;1719663;83;25461;-58
2022/06/10 05:15:15;;;;;;;15.80;11.27;;;;;;;16.73;89.29;98728.20;1719708;83;27422;-58
2022/06/10 05:17:42;;;;;;;14.98;10.63;;;;;;;16.75;89.41;98736.92;1719715;83;25512;-59
2022/06/10 05:20:17;;;;;;;13.35;10.70;;;;;;;16.76;89.30;98737.17;1719934;83;25595;-58
2022/06/10 05:22:44;;;;;;;15.05;11.20;;;;;;;16.79;89.44;98745.34;1719531;83;25803;-60
2022/06/10 05:25:13;;;;;;;15.10;10.50;;;;;;;16.79;89.14;98751.69;1719535;83;25718;-58
2022/06/10 05:27:39;;;;;;;15.35;11.35;;;;;;;16.78;89.04;98748.67;1719747;83;27324;-59
2022/06/10 05:30:10;;;;;;;13.60;10.43;;;;;;;16.79;89.04;98759.17;1719806;83;25425;-58
2022/06/10 05:32:37;;;;;;;13.32;11.03;;;;;;;16.80;89.25;98762.16;1719891;83;25725;-58
2022/06/10 05:35:06;;;;;;;16.05;12.00;;;;;;;16.82;89.27;98765.39;1719527;83;25747;-58
2022/06/10 05:37:33;;;;;;;14.58;11.20;;;;;;;16.79;89.03;98764.14;1719813;83;25595;-58
2022/06/10 05:40:00;;;;;;;15.05;11.95;;;;;;;16.77;89.18;98769.78;1719377;83;27418;-58
2022/06/10 05:42:27;;;;;;;14.60;11.45;;;;;;;16.81;89.44;98769.29;1719556;83;25579;-58
2022/06/10 05:44:54;;;;;;;14.40;10.90;;;;;;;16.80;89.14;98780.96;1719680;83;25597;-58
2022/06/10 05:47:26;;;;;;;16.32;11.08;;;;;;;16.78;89.23;98784.65;1715743;83;25700;-58
2022/06/10 05:49:58;;;;;;;16.45;12.13;;;;;;;16.85;89.63;98786.83;1712572;83;25470;-58
2022/06/10 05:52:28;;;;;;;15.20;12.03;;;;;;;16.84;89.26;98786.58;1712812;83;27423;-59
2022/06/10 05:54:56;;;;;;;;;;;;;;;16.87;89.29;98791.41;1715360;82;25576;-58
2022/06/10 05:57:23;;;;;;;15.53;12.05;;;;;;;16.90;89.22;98789.91;1712642;83;25680;-59
2022/06/10 05:59:52;;;;;;;16.60;11.22;;;;;;;16.90;89.66;98792.69;1712590;82;25746;-58
2022/06/10 06:02:22;;;;;;;14.33;11.05;;;;;;;16.90;89.54;98799.00;1712702;82;25610;-58
2022/06/10 06:04:50;;;;;;;17.12;11.03;;;;;;;16.95;89.44;98797.95;1712903;82;27376;-59
2022/06/10 06:07:21;;;;;;;14.23;10.40;;;;;;;16.92;89.15;98798.66;1712482;82;25454;-59
2022/06/10 06:09:48;;;;;;;16.87;11.65;;;;;;;16.90;89.34;98803.75;1712662;82;25722;-58
2022/06/10 06:12:15;;;;;;;13.78;10.35;;;;;;;16.90;89.66;98794.06;1712837;82;25726;-58
2022/06/10 06:14:42;;;;;;;12.70;10.90;;;;;;;16.97;89.49;98801.74;1712791;82;25747;-59
2022/06/10 06:17:10;;;;;;;14.13;11.00;;;;;;;17.01;89.39;98805.44;1712872;83;27575;-58
2022/06/10 06:19:37;;;;;;;15.95;10.30;;;;;;;17.06;89.36;98801.83;1712995;83;25728;-58
2022/06/10 06:22:04;;;;;;;14.45;11.00;;;;;;;17.08;89.11;98809.80;1712752;83;25393;-58
2022/06/10 06:24:33;;;;;;;14.70;10.65;;;;;;;17.09;89.15;98814.17;1712803;82;25747;-58
2022/06/10 06:27:01;;;;;;;15.18;10.88;;;;;;;17.06;88.88;98812.90;1712815;83;25575;-58
2022/06/10 06:29:29;;;;;;;14.33;11.10;;;;;;;17.10;89.11;98819.14;1712919;82;28131;-58
2022/06/10 06:31:56;;;;;;;14.98;10.88;;;;;;;17.08;89.05;98820.06;1712553;82;25690;-59
2022/06/10 06:34:25;;;;;;;15.88;10.85;;;;;;;17.13;89.40;98825.36;1712724;82;25454;-59
2022/06/10 06:36:55;;;;;;;13.13;10.60;;;;;;;17.15;89.25;98829.95;1712958;82;25778;-58
2022/06/10 06:39:23;;;;;;;17.05;10.13;;;;;;;17.12;89.09;98831.47;1712921;83;25465;-58
2022/06/10 06:41:52;;;;;;;13.83;10.60;;;;;;;17.13;89.22;98835.84;1712918;82;27464;-58
2022/06/10 06:44:19;;;;;;;14.18;9.00;;;;;;;17.17;89.14;98837.33;1712892;82;25781;-58
2022/06/10 06:46:46;;;;;;;14.45;10.38;;;;;;;17.17;88.92;98835.94;1712606;82;25698;-58
2022/06/10 06:49:18;;;;;;;13.80;10.63;;;;;;;17.16;88.99;98840.67;1712468;83;25696;-58
2022/06/10 06:51:45;;;;;;;15.70;10.13;;;;;;;17.21;89.20;98842.97;1712930;82;25644;-58
2022/06/10 06:54:12;;;;;;;16.65;9.93;;;;;;;17.24;88.83;98844.44;1713099;82;27418;-58
2022/06/10 06:56:39;;;;;;;15.28;10.60;;;;;;;17.27;88.71;98852.04;1712775;82;25648;-57
2022/06/10 06:59:07;;;;;;;14.05;10.05;;;;;;;17.34;88.67;98856.16;1712630;82;25703;-57
2022/06/10 07:01:35;;;;;;;15.88;10.53;;;;;;;17.32;88.54;98850.19;1712967;83;25727;-58
2022/06/10 07:04:04;;;;;;;15.03;11.33;;;;;;;17.40;88.80;98855.56;1712595;83;25413;-57
2022/06/10 07:06:33;;;;;;;14.95;10.25;;;;;;;17.42;88.47;98857.37;1712953;82;27324;-58
2022/06/10 07:09:00;;;;;;;14.68;10.35;;;;;;;17.47;88.47;98863.23;1712806;82;25686;-58
2022/06/10 07:11:26;;;;;;;14.07;10.78;;;;;;;17.46;88.11;98859.44;1712581;83;25626;-58
2022/06/10 07:13:53;;;;;;;15.65;10.03;;;;;;;17.47;88.58;98865.22;1712925;83;26340;-58
2022/06/10 07:16:20;;;;;;;16.35;11.15;;;;;;;17.47;88.49;98863.84;1712546;83;25572;-58
2022/06/10 07:18:46;;;;;;;15.88;10.48;;;;;;;17.47;88.34;98862.45;1712952;82;27540;-58
2022/06/10 07:21:13;;;;;;;16.35;10.75;;;;;;;17.49;88.19;98865.66;1712886;83;25627;-58
2022/06/10 07:23:40;;;;;;;13.78;10.18;;;;;;;17.59;88.46;98867.11;1712710;82;25587;-58
2022/06/10 07:26:07;;;;;;;14.13;9.70;;;;;;;17.66;88.29;98865.33;1712796;83;26261;-58
2022/06/10 07:28:34;;;;;;;12.80;10.05;;;;;;;17.72;88.07;98871.97;1712811;83;25461;-58
2022/06/10 07:31:00;;;;;;;14.63;10.68;;;;;;;17.71;88.01;98868.98;1712629;83;27984;-58
2022/06/10 07:33:27;;;;;;;13.48;10.35;;;;;;;17.74;88.07;98868.27;1712456;83;27233;-58
2022/06/10 07:35:55;;;;;;;11.25;8.85;;;;;;;17.70;87.49;98868.17;1712957;82;25466;-58
2022/06/10 07:38:22;;;;;;;13.30;9.58;;;;;;;17.65;87.44;98875.38;1712799;83;26576;-58
2022/06/10 07:43:35;;;;;;;18.60;10.03;;;;;;;17.67;87.85;98876.62;1712566;83;25608;-58
2022/06/10 07:46:04;;;;;;;12.18;9.68;;;;;;;17.66;87.64;98882.52;1712641;83;25669;-58
2022/06/10 07:48:31;;;;;;;12.33;9.35;;;;;;;17.67;87.78;98879.40;1717662;83;25592;-58
2022/06/10 07:50:58;;;;;;;13.90;10.05;;;;;;;17.60;87.77;98875.06;1719771;83;25701;-58
2022/06/10 07:53:24;;;;;;;13.93;9.63;;;;;;;17.58;87.87;98882.13;1719460;83;25602;-58
2022/06/10 07:55:51;;;;;;;19.40;12.28;;;;;;;17.62;87.69;98885.19;1720147;83;28200;-58
2022/06/10 07:58:19;;;;;;;12.43;9.88;;;;;;;17.59;87.13;98885.94;1719449;83;25473;-58
2022/06/10 08:00:48;;;;;;;15.40;9.63;;;;;;;17.53;87.52;98881.81;1719754;83;25683;-57
2022/06/10 08:03:15;;;;;;;13.65;10.53;;;;;;;17.52;87.69;98887.92;1719392;83;25752;-58
2022/06/10 08:05:42;;;;;;;13.53;10.25;;;;;;;17.56;87.67;98888.81;1719641;83;25481;-57
2022/06/10 08:08:14;;;;;;;11.30;9.58;;;;;;;17.59;87.65;98897.59;1719599;83;27810;-58
2022/06/10 08:10:41;;;;;;;13.98;10.08;;;;;;;17.57;87.27;98902.09;1719783;83;25504;-58
2022/06/10 08:13:07;;;;;;;14.10;10.10;;;;;;;17.53;87.57;98899.82;1719669;83;25639;-58
2022/06/10 08:15:36;;;;;;;13.08;10.25;;;;;;;17.53;87.38;98901.20;1719642;83;25783;-58
2022/06/10 08:18:05;;;;;;;13.43;10.65;;;;;;;17.52;87.21;98900.39;1719888;83;25631;-58
2022/06/10 08:23:22;;;;;;;13.18;10.58;;;;;;;17.59;87.38;98911.44;1670716;85;25696;-58
2022/06/10 08:25:50;;;;;;;12.60;9.98;;;;;;;17.58;86.55;98910.63;1719483;83;25679;-58
2022/06/10 08:28:17;;;;;;;13.08;10.60;;;;;;;17.56;86.78;98909.59;1719891;83;26387;-58
2022/06/10 08:30:44;;;;;;;12.65;9.70;;;;;;;17.59;86.86;98907.28;1719698;83;25409;-57
2022/06/10 08:33:11;;;;;;;17.00;11.85;;;;;;;17.65;86.70;98907.25;1719445;83;27649;-57
2022/06/10 08:35:39;;;;;;;15.25;11.45;;;;;;;17.67;86.82;98915.42;1719559;83;25616;-58
2022/06/10 08:38:10;;;;;;;12.43;9.63;;;;;;;17.64;86.50;98917.52;1719842;83;25610;-58
2022/06/10 08:40:58;;;;;;;11.40;9.73;;;;;;;17.72;86.66;98914.93;1719778;83;25699;-58
2022/06/10 08:44:02;;;;;;;13.72;11.18;;;;;;;17.77;86.28;98918.27;1719740;83;25561;-57
2022/06/10 08:46:34;;;;;;;14.90;10.45;;;;;;;17.83;86.52;98917.98;1719461;83;27440;-58
2022/06/10 08:49:45;;;;;;;14.50;10.82;;;;;;;17.91;86.29;98918.41;1757298;80;25622;-58
2022/06/10 08:52:29;;;;;;;14.68;9.48;;;;;;;17.95;86.42;98919.30;1768371;81;25447;-58
2022/06/10 08:55:04;;;;;;;10.18;9.08;;;;;;;17.89;85.45;98925.69;1768079;80;25829;-58
2022/06/10 08:57:47;;;;;;;11.97;9.95;;;;;;;17.89;84.90;98925.69;1767590;80;25728;-58
2022/06/10 09:00:25;;;;;;;12.80;10.35;;;;;;;17.94;85.52;98924.63;1768550;81;27275;-58
2022/06/10 09:03:18;;;;;;;12.35;9.35;;;;;;;18.08;86.00;98935.27;1768550;80;25695;-58
2022/06/10 09:05:55;;;;;;;12.20;10.23;;;;;;;18.18;85.02;98931.98;1768567;81;25454;-58
2022/06/10 09:08:26;;;;;;;13.60;9.25;;;;;;;18.31;84.91;98936.05;1768555;81;26446;-58
2022/06/10 09:11:11;;;;;;;10.80;8.78;;;;;;;18.42;83.85;98934.89;1768336;81;25647;-58
2022/06/10 09:13:41;;;;;;;12.18;9.60;;;;;;;18.49;84.18;98939.25;1768152;80;28468;-58
2022/06/10 09:16:35;;;;;;;;;;;;;;;18.52;83.77;98944.66;1771008;81;25766;-58
2022/06/10 09:19:56;;;;;;;13.90;10.18;;;;;;;18.53;82.86;98954.00;1768683;79;25669;-58
2022/06/10 09:22:44;;;;;;;;;;;;;;;18.52;83.48;98946.04;1770665;81;25427;-58
2022/06/10 09:25:32;;;;;;;11.95;9.28;;;;;;;18.53;82.93;98952.62;1768211;81;25443;-58
2022/06/10 09:28:00;;;;;;;10.23;8.63;;;;;;;18.56;83.05;98948.31;1732090;82;28277;-58
2022/06/10 09:30:44;;;;;;;12.23;9.48;;;;;;;18.60;81.34;98943.66;1732091;82;25610;-58
2022/06/10 09:33:32;;;;;;;13.68;9.73;;;;;;;18.66;83.01;98945.57;1731990;82;25485;-59
2022/06/10 09:36:42;;;;;;;14.00;11.30;;;;;;;18.91;82.62;98950.28;1731716;82;25764;-59
2022/06/10 09:42:23;;;;;;;12.50;10.43;;;;;;;19.15;81.21;98940.69;1732019;82;25652;-59
2022/06/10 09:45:17;;;;;;;11.55;9.30;;;;;;;19.39;81.58;98947.11;1725539;82;25457;-59
2022/06/10 09:48:22;;;;;;;11.15;9.10;;;;;;;19.54;81.14;98946.80;1732492;82;25607;-59
2022/06/10 09:51:16;;;;;;;12.60;9.68;;;;;;;19.60;79.38;98950.89;1737033;82;26377;-60
2022/06/10 09:54:11;;;;;;;11.55;10.05;;;;;;;19.74;80.14;98948.16;1712907;82;25758;-59
2022/06/10 09:57:08;;;;;;;10.40;9.08;;;;;;;19.89;79.63;98950.03;1736296;82;27755;-59
2022/06/10 10:00:05;;;;;;;9.83;8.80;;;;;;;20.01;78.11;98953.24;1737268;82;25672;-59
2022/06/10 10:02:58;;;;;;;10.88;8.50;;;;;;;20.03;77.93;98960.64;1669059;85;25718;-59
2022/06/10 10:05:54;;;;;;;9.30;8.38;;;;;;;20.16;78.76;98961.27;1674522;85;25789;-59
2022/06/10 10:08:34;;;;;;;9.13;8.10;;;;;;;20.33;77.61;98961.12;1608701;89;25535;-60
2022/06/10 10:11:16;;;;;;;9.60;8.58;;;;;;;20.45;77.08;98965.09;1677112;85;27446;-60
2022/06/10 10:13:59;;;;;;;10.08;8.38;;;;;;;20.55;75.18;98965.03;1676088;85;25457;-59
2022/06/10 10:16:48;;;;;;;9.63;8.65;;;;;;;20.42;74.46;98965.27;1653071;85;25774;-59
2022/06/10 10:19:35;;;;;;;9.65;8.35;;;;;;;20.45;75.52;98969.28;1677201;85;26533;-59
2022/06/10 10:22:38;;;;;;;9.75;8.75;;;;;;;20.62;73.43;98965.17;1641363;85;25748;-59
2022/06/10 10:25:10;;;;;;;8.00;7.20;;;;;;;20.61;74.18;98964.15;1677063;85;27397;-59
2022/06/10 10:27:36;;;;;;;10.90;8.10;;;;;;;20.50;73.37;98975.93;1676101;85;25839;-59
2022/06/10 10:30:23;;;;;;;9.63;7.28;;;;;;;20.60;73.34;98967.52;1676706;85;25452;-59
2022/06/10 10:32:54;;;;;;;9.10;8.18;;;;;;;20.88;74.20;98964.94;1676529;85;25806;-60
2022/06/10 10:35:26;;;;;;;10.03;8.50;;;;;;;21.28;73.63;98969.67;1676567;85;25773;-59
2022/06/10 10:38:00;;;;;;;9.20;8.30;;;;;;;21.42;71.95;98971.81;1695597;82;27703;-59
2022/06/10 10:40:44;;;;;;;9.33;8.43;;;;;;;21.83;72.84;98971.70;1733871;82;25501;-60
2022/06/10 10:43:24;;;;;;;12.78;8.15;;;;;;;22.13;70.86;98976.97;1734141;82;25461;-59
2022/06/10 10:46:03;;;;;;;9.25;7.60;;;;;;;22.51;70.19;98973.47;1735116;82;25784;-59
2022/06/10 10:48:38;;;;;;;8.03;7.22;;;;;;;22.83;69.11;98973.53;1745416;80;25667;-59
2022/06/10 10:51:13;;;;;;;7.40;6.70;;;;;;;23.13;69.45;98969.69;1765385;80;27825;-57
2022/06/10 10:53:56;;;;;;;7.20;6.50;;;;;;;23.27;67.37;98980.14;1764851;80;25403;-59
2022/06/10 10:56:34;;;;;;;7.47;6.78;;;;;;;23.25;66.08;98983.11;1765268;80;25675;-57
2022/06/10 10:59:01;;;;;;;7.85;7.12;;;;;;;23.04;65.43;98986.02;1765716;80;25803;-60
2022/06/10 11:01:45;;;;;;;8.18;7.00;;;;;;;23.09;64.79;98982.86;1765332;81;25569;-57
2022/06/10 11:04:19;;;;;;;6.58;5.65;;;;;;;23.03;65.87;98988.00;1765482;80;27507;-57
2022/06/10 11:06:46;;;;;;;7.12;6.53;;;;;;;23.08;62.66;98989.63;1765581;80;25669;-61
2022/06/10 11:09:23;;;;;;;6.03;5.42;;;;;;;23.00;62.99;98992.97;1758595;81;25709;-58
2022/06/10 11:11:51;;;;;;;7.17;6.47;;;;;;;22.75;61.36;98994.22;1765617;80;26543;-61
2022/06/10 11:14:25;;;;;;;9.58;6.55;;;;;;;22.75;63.40;98988.05;1765475;80;25653;-62
2022/06/10 11:17:15;;;;;;;7.15;6.45;;;;;;;22.90;63.70;98995.11;1765668;80;27385;-61
2022/06/10 11:19:46;;;;;;;5.47;4.97;;;;;;;22.78;63.30;98987.27;1765288;80;25657;-57
2022/06/10 11:22:26;;;;;;;5.40;4.90;;;;;;;22.77;65.10;98988.44;1765850;80;25653;-58
2022/06/10 11:25:14;;;;;;;6.12;5.10;;;;;;;23.00;65.17;98992.19;1765331;81;26245;-58
2022/06/10 11:27:43;;;;;;;5.60;5.03;;;;;;;23.23;64.38;98988.31;1765538;80;25390;-58
2022/06/10 11:30:17;;;;;;;5.50;5.00;;;;;;;23.14;63.08;98988.67;1755724;80;28173;-58
2022/06/10 11:32:57;;;;;;;5.40;4.67;;;;;;;23.12;64.61;98991.86;1765243;80;25697;-58
2022/06/10 11:35:40;;;;;;;6.35;5.20;;;;;;;23.35;64.60;98992.75;1765678;80;25674;-58
2022/06/10 11:38:27;;;;;;;7.00;4.65;;;;;;;23.91;61.50;98989.16;1765612;81;25432;-61
2022/06/10 11:40:58;;;;;;;5.33;4.83;;;;;;;23.91;59.14;98984.95;1765577;80;25445;-58
2022/06/10 11:43:36;;;;;;;5.65;5.03;;;;;;;23.67;61.82;98987.91;1765420;81;27412;-60
2022/06/10 11:46:27;;;;;;;5.30;4.20;;;;;;;24.25;62.62;98974.02;1765252;81;25570;-58
2022/06/10 11:49:07;;;;;;;5.42;4.60;;;;;;;25.14;60.03;98973.52;1765310;80;25467;-58
2022/06/10 11:51:40;;;;;;;7.47;4.55;;;;;;;25.57;57.59;98978.73;1759787;80;25972;-57
2022/06/10 11:54:41;;;;;;;4.55;4.00;;;;;;;25.30;54.48;98977.88;1765204;80;25627;-58
2022/06/10 12:00:39;;;;;;;3.75;3.40;;;;;;;25.43;56.38;98978.20;1765117;81;25716;-59
2022/06/10 12:03:25;;;;;;;;;;;;;;;25.40;56.28;98977.02;1767973;80;25404;-58
2022/06/10 12:06:15;;;;;;;3.33;3.02;;;;;;;25.73;56.64;98974.69;1765430;81;25726;-58
2022/06/10 12:09:01;;;;;;;4.00;3.45;;;;;;;25.92;54.62;98976.16;1765792;80;25627;-58
2022/06/10 12:11:57;;;;;;;3.47;3.17;;;;;;;26.37;54.97;98973.25;1765693;80;27391;-61
2022/06/10 12:14:45;;;;;;;3.72;3.40;;;;;;;26.06;50.76;98966.84;1765081;80;25559;-61
2022/06/10 12:17:35;;;;;;;3.70;3.40;;;;;;;25.47;52.43;98969.78;1765402;81;25463;-58